MST,Max TemperatureF,Mean TemperatureF,Min TemperatureF,Max Dew PointF,MeanDew PointF,Min DewpointF,Max Humidity, Mean Humidity, Min Humidity, Max Sea Level PressureIn, Mean Sea Level PressureIn, Min Sea Level PressureIn, Max VisibilityMiles, Mean VisibilityMiles, Min VisibilityMiles, Max Wind SpeedMPH, Mean Wind SpeedMPH, Max Gust SpeedMPH,PrecipitationIn, CloudCover, Events, WindDirDegrees
2012-1-1,41,26,10,14,9,3,85,59,29,30.62,30.55,30.44,10,10,10,12,7,,0.00,0,,357
2012-1-2,44,28,12,16,11,0,85,54,15,30.70,30.63,30.58,10,10,10,9,5,,0.00,0,,356
2012-1-3,46,29,12,19,14,7,92,63,34,30.54,30.45,30.34,10,10,10,10,5,,0.00,0,,357
2012-1-4,46,30,15,19,15,9,86,61,29,30.62,30.53,30.44,10,10,10,10,5,,0.00,0,,7
2012-1-5,46,30,14,18,14,7,79,59,29,30.52,30.36,30.20,10,10,7,9,5,,0.00,0,,359
2012-1-6,46,29,12,21,15,9,86,61,32,30.18,30.12,30.08,10,10,10,9,5,,0.00,0,,360
2012-1-7,46,32,17,25,19,10,93,62,39,30.12,30.04,29.95,10,10,10,16,4,,0.00,2,,254
2012-1-8,37,30,24,25,23,19,93,74,56,30.13,30.07,30.02,10,9,3,16,7,20,0.00,6,,1
2012-1-9,37,22,8,18,12,3,93,66,36,30.31,30.26,30.23,10,10,10,7,4,,0.00,1,,356
2012-1-10,46,29,12,21,15,7,86,62,37,30.25,30.18,30.07,10,10,10,8,4,,0.00,0,,358
2012-1-11,41,28,15,21,15,5,93,57,31,30.05,29.98,29.92,10,10,10,15,6,25,0.00,0,,349
2012-1-12,37,21,5,5,1,-6,78,48,24,30.22,30.16,30.09,10,10,10,15,7,18,0.00,0,,351
2012-1-13,41,21,1,9,1,-8,85,51,21,30.30,30.24,30.15,10,10,10,13,4,17,0.00,0,,338
2012-1-14,44,24,3,10,4,-4,79,52,20,30.43,30.37,30.28,10,10,10,10,7,,0.00,0,,358
2012-1-15,46,26,6,19,8,0,85,51,22,30.26,30.16,30.06,10,10,10,16,6,21,0.00,2,,274
2012-1-16,37,34,30,36,30,23,93,85,70,30.04,29.92,29.80,10,8,1,30,11,40,0.12,7,,234
2012-1-17,35,26,17,25,17,10,86,65,48,30.27,30.18,30.04,10,10,10,21,7,29,0.00,4,,215
2012-1-18,46,30,15,21,14,7,74,54,34,30.26,30.20,30.09,10,10,10,21,9,26,0.00,0,,193
2012-1-19,51,36,21,27,20,12,74,54,30,30.19,30.11,30.03,10,10,10,17,6,18,0.00,0,,187
2012-1-20,51,36,21,28,23,18,86,62,35,30.05,29.99,29.93,10,10,10,18,7,23,0.00,0,,261
2012-1-21,46,32,19,25,20,14,86,62,39,30.14,30.00,29.74,10,10,10,14,3,18,0.00,2,,251
2012-1-22,41,31,21,28,20,16,86,64,39,30.13,29.85,29.59,10,10,3,22,13,30,0.00,3,,246
2012-1-23,42,28,14,18,12,7,86,58,24,30.13,30.07,29.97,10,10,10,8,5,,0.00,2,,156
2012-1-24,39,32,26,27,21,18,75,65,52,30.01,29.96,29.92,10,10,10,17,5,22,0.00,5,,7
2012-1-25,,,,,,,,,,,,,,,,,,,0.00,,,-1
2012-1-26,48,45,42,21,20,19,39,35,32,30.22,30.13,30.09,10,10,10,17,9,22,0.00,0,,240
2012-1-27,44,38,33,28,22,10,70,54,27,30.15,30.04,29.96,10,10,5,17,5,21,0.00,5,Thunderstorm,318
2012-1-28,39,27,15,19,14,9,80,63,41,30.43,30.37,30.31,10,10,10,8,3,,0.00,3,,359
2012-1-29,48,30,12,18,12,7,85,53,25,30.44,30.38,30.29,10,10,10,13,3,,0.00,0,,1
2012-1-30,51,33,15,19,16,10,86,56,22,30.27,30.15,30.04,10,10,10,13,6,20,0.00,0,,315
2012-1-31,48,32,17,21,14,10,79,51,24,30.19,30.12,30.08,10,10,10,12,5,16,0.00,3,,305